Time;durP1;ratioP1;P1;durP2;ratioP2;P2;SDS_P1;SDS_P2;PMS_P1;PMS_P2;Temp;Humidity;BMP_temperature;BMP_pressure;BME280_temperature;BME280_humidity;BME280_pressure;Samples;Min_cycle;Max_cycle;Signal;HPM_P1;HPM_P2
2021/09/08 00:01:11;;;;;;;10.50;5.50;;;11.30;99.90;;;;;;4257893;27;20103;-65
2021/09/08 00:03:12;;;;;;;11.40;7.33;;;11.20;99.90;;;;;;4257634;27;20034;-64
2021/09/08 00:05:13;;;;;;;13.17;8.40;;;11.10;99.90;;;;;;4258564;27;20453;-63
2021/09/08 00:07:14;;;;;;;14.97;8.27;;;11.10;99.90;;;;;;4257338;27;20075;-64
2021/09/08 00:09:18;;;;;;;13.00;8.80;;;11.10;99.90;;;;;;4257808;27;20812;-64
2021/09/08 00:11:19;;;;;;;15.80;8.20;;;11.10;99.90;;;;;;4256756;27;20035;-63
2021/09/08 00:13:21;;;;;;;12.73;6.73;;;11.10;99.90;;;;;;4257536;27;20079;-64
2021/09/08 00:15:22;;;;;;;13.80;6.70;;;11.10;99.90;;;;;;4257573;27;20018;-63
2021/09/08 00:17:23;;;;;;;11.83;6.20;;;11.00;99.90;;;;;;4256642;27;20027;-64
2021/09/08 00:19:24;;;;;;;9.57;5.73;;;11.00;99.90;;;;;;4257829;27;20440;-63
2021/09/08 00:21:25;;;;;;;11.53;6.33;;;11.00;99.90;;;;;;4257196;27;20494;-64
2021/09/08 00:23:27;;;;;;;27.83;6.47;;;11.00;99.90;;;;;;4257533;27;20039;-63
2021/09/08 00:25:28;;;;;;;20.97;6.90;;;11.00;99.90;;;;;;4257275;27;20052;-63
2021/09/08 00:27:29;;;;;;;16.50;7.27;;;11.00;99.90;;;;;;4258289;27;20063;-63
2021/09/08 00:29:30;;;;;;;16.63;7.00;;;11.00;99.90;;;;;;4256048;27;20078;-64
2021/09/08 00:31:31;;;;;;;14.83;6.30;;;11.00;99.90;;;;;;4257426;27;20925;-63
2021/09/08 00:33:32;;;;;;;12.23;5.27;;;11.00;99.90;;;;;;4256030;27;20091;-64
2021/09/08 00:35:33;;;;;;;10.17;5.23;;;10.90;99.90;;;;;;4257259;27;20469;-63
2021/09/08 00:37:39;;;;;;;12.80;6.37;;;10.90;99.90;;;;;;4256801;27;20071;-63
2021/09/08 00:39:40;;;;;;;11.77;5.37;;;10.90;99.90;;;;;;4257870;27;20023;-64
2021/09/08 00:41:41;;;;;;;10.00;5.70;;;10.90;99.90;;;;;;4237789;28;20096;-64
2021/09/08 00:43:43;;;;;;;12.53;5.47;;;10.90;99.90;;;;;;4257610;27;20046;-63
2021/09/08 00:45:53;;;;;;;9.53;5.13;;;10.90;99.90;;;;;;4256827;27;20031;-63
2021/09/08 00:47:54;;;;;;;9.60;5.35;;;10.80;99.90;;;;;;4257631;27;20075;-63
2021/09/08 00:49:56;;;;;;;12.57;5.03;;;10.90;99.90;;;;;;4256727;27;20027;-63
2021/09/08 00:52:01;;;;;;;11.20;5.37;;;10.90;99.90;;;;;;4256085;27;20087;-63
2021/09/08 00:54:05;;;;;;;11.70;6.03;;;10.80;99.90;;;;;;4257646;27;20428;-63
2021/09/08 00:56:09;;;;;;;11.20;5.57;;;10.80;99.90;;;;;;4256582;27;20034;-63
2021/09/08 00:58:12;;;;;;;11.43;5.60;;;10.70;99.90;;;;;;4239159;28;20072;-63
2021/09/08 01:00:14;;;;;;;10.97;5.63;;;10.70;99.90;;;;;;4256815;27;20449;-63
2021/09/08 01:02:15;;;;;;;13.40;5.37;;;10.70;99.90;;;;;;4239508;28;20035;-63
2021/09/08 01:04:17;;;;;;;8.40;4.63;;;10.60;99.90;;;;;;4256822;27;20039;-63
2021/09/08 01:06:20;;;;;;;10.30;4.93;;;10.60;99.90;;;;;;4257751;27;20538;-63
2021/09/08 01:08:22;;;;;;;10.37;5.20;;;10.50;99.90;;;;;;4256008;27;20027;-63
2021/09/08 01:10:23;;;;;;;10.40;4.70;;;10.50;99.90;;;;;;4257979;27;20031;-63
2021/09/08 01:12:24;;;;;;;8.73;5.20;;;10.40;99.90;;;;;;4256004;27;20122;-63
2021/09/08 01:14:26;;;;;;;9.87;5.03;;;10.40;99.90;;;;;;4257116;27;20099;-63
2021/09/08 01:16:27;;;;;;;10.30;5.30;;;10.30;99.90;;;;;;4256583;27;20023;-63
2021/09/08 01:18:29;;;;;;;11.03;4.97;;;10.20;99.90;;;;;;4257583;27;20027;-63
2021/09/08 01:20:30;;;;;;;9.13;5.23;;;10.20;99.90;;;;;;4256835;27;20031;-63
2021/09/08 01:22:32;;;;;;;9.93;5.20;;;10.10;99.90;;;;;;4256309;27;20039;-64
2021/09/08 01:24:33;;;;;;;10.43;5.23;;;10.10;99.90;;;;;;4257037;27;20088;-63
2021/09/08 01:26:36;;;;;;;7.27;4.73;;;10.20;99.90;;;;;;4256087;27;20163;-64
2021/09/08 01:28:38;;;;;;;10.03;5.80;;;10.20;99.90;;;;;;4257146;27;20088;-64
2021/09/08 01:30:42;;;;;;;9.30;5.03;;;10.10;99.90;;;;;;4256272;27;20038;-64
2021/09/08 01:32:44;;;;;;;8.43;5.43;;;10.10;99.90;;;;;;4239152;27;20084;-64
2021/09/08 01:34:45;;;;;;;16.50;6.23;;;10.10;99.90;;;;;;4256515;27;20027;-64
2021/09/08 01:36:46;;;;;;;12.13;6.03;;;10.00;99.90;;;;;;4256698;27;20043;-64
2021/09/08 01:38:47;;;;;;;9.63;4.77;;;10.00;99.90;;;;;;4256340;27;20027;-63
2021/09/08 01:40:49;;;;;;;10.00;5.53;;;10.00;99.90;;;;;;4257690;27;20039;-64
2021/09/08 01:42:50;;;;;;;13.67;5.50;;;10.00;99.90;;;;;;4255400;27;20067;-64
2021/09/08 01:44:51;;;;;;;10.23;5.63;;;10.00;99.90;;;;;;4257644;27;20084;-64
2021/09/08 01:46:56;;;;;;;9.53;6.03;;;9.90;99.90;;;;;;4256623;27;20038;-63
2021/09/08 01:48:57;;;;;;;8.37;4.67;;;9.90;99.90;;;;;;4257635;27;20415;-63
2021/09/08 01:50:58;;;;;;;7.80;4.77;;;9.90;99.90;;;;;;4256347;27;20562;-64
2021/09/08 01:53:00;;;;;;;7.77;5.00;;;9.90;99.90;;;;;;4256996;27;20535;-64
2021/09/08 01:55:01;;;;;;;12.10;5.23;;;9.80;99.90;;;;;;4256489;27;20401;-64
2021/09/08 01:57:02;;;;;;;9.77;5.37;;;9.80;99.90;;;;;;4257057;27;20023;-64
2021/09/08 01:59:04;;;;;;;8.33;4.87;;;9.80;99.90;;;;;;4260187;27;20059;-64
2021/09/08 02:01:05;;;;;;;9.30;5.33;;;9.80;99.90;;;;;;4258639;27;20177;-64
2021/09/08 02:03:06;;;;;;;8.90;5.53;;;9.70;99.90;;;;;;4259971;27;20038;-64
2021/09/08 02:05:08;;;;;;;9.57;5.50;;;9.70;99.90;;;;;;4258024;27;20088;-64
2021/09/08 02:07:09;;;;;;;10.83;5.03;;;9.70;99.90;;;;;;4260174;27;20896;-63
2021/09/08 02:09:10;;;;;;;8.10;4.97;;;9.70;99.90;;;;;;4259116;27;20075;-64
2021/09/08 02:11:11;;;;;;;8.60;4.90;;;9.70;99.90;;;;;;4260622;27;20079;-64
2021/09/08 02:13:12;;;;;;;13.27;5.87;;;9.70;99.90;;;;;;4259118;27;20030;-65
2021/09/08 02:15:14;;;;;;;11.10;5.47;;;9.70;99.90;;;;;;4260450;27;20031;-64
2021/09/08 02:17:15;;;;;;;11.80;5.10;;;9.70;99.90;;;;;;4259020;27;20030;-63
2021/09/08 02:19:16;;;;;;;10.37;5.17;;;9.70;99.90;;;;;;4259494;27;20035;-65
2021/09/08 02:21:18;;;;;;;9.70;5.47;;;9.70;99.90;;;;;;4259017;27;20083;-64
2021/09/08 02:23:19;;;;;;;8.80;5.00;;;9.70;99.90;;;;;;4259353;27;20050;-63
2021/09/08 02:25:20;;;;;;;10.60;5.77;;;9.70;99.90;;;;;;4259480;27;20087;-65
2021/09/08 02:27:24;;;;;;;9.50;5.13;;;9.70;99.90;;;;;;4259359;27;20027;-65
2021/09/08 02:29:25;;;;;;;7.83;4.37;;;9.60;99.90;;;;;;4259487;27;20133;-62
2021/09/08 02:31:29;;;;;;;7.80;4.33;;;9.60;99.90;;;;;;4258381;27;20428;-63
2021/09/08 02:33:30;;;;;;;13.23;5.67;;;9.70;99.90;;;;;;4260039;27;20493;-63
2021/09/08 02:35:31;;;;;;;8.70;4.93;;;9.60;99.90;;;;;;4258825;27;20122;-63
2021/09/08 02:37:32;;;;;;;9.33;4.93;;;9.60;99.90;;;;;;4260343;27;20026;-64
2021/09/08 02:39:34;;;;;;;8.63;4.47;;;9.70;99.90;;;;;;4258019;27;20084;-64
2021/09/08 02:41:35;;;;;;;11.00;4.40;;;9.70;99.90;;;;;;4259478;27;20046;-63
2021/09/08 02:43:37;;;;;;;9.73;4.27;;;9.60;99.90;;;;;;4258501;27;20103;-63
2021/09/08 02:45:38;;;;;;;7.50;4.67;;;9.60;99.90;;;;;;4259177;27;20080;-63
2021/09/08 02:47:39;;;;;;;8.23;4.00;;;9.50;99.90;;;;;;4257472;27;21109;-63
2021/09/08 02:49:40;;;;;;;7.17;4.17;;;9.50;99.90;;;;;;4260010;27;20447;-63
2021/09/08 02:51:41;;;;;;;5.77;3.63;;;9.40;99.90;;;;;;4257001;27;20039;-63
2021/09/08 02:53:42;;;;;;;7.07;3.87;;;9.30;99.90;;;;;;4258697;27;20482;-63
2021/09/08 02:55:43;;;;;;;9.57;4.90;;;9.20;99.90;;;;;;4258463;27;20427;-63
2021/09/08 02:57:44;;;;;;;7.93;5.00;;;9.10;99.90;;;;;;4258983;27;20087;-63
2021/09/08 02:59:45;;;;;;;7.77;4.33;;;9.10;99.90;;;;;;4257574;27;20035;-63
2021/09/08 03:01:47;;;;;;;7.27;4.87;;;9.00;99.90;;;;;;4257347;27;20095;-63
2021/09/08 03:03:48;;;;;;;9.30;4.93;;;9.00;99.90;;;;;;4259563;27;20146;-64
2021/09/08 03:05:50;;;;;;;5.40;3.77;;;9.00;99.90;;;;;;4257487;27;20091;-63
2021/09/08 03:07:51;;;;;;;7.70;4.13;;;9.00;99.90;;;;;;4259176;27;20790;-63
2021/09/08 03:09:52;;;;;;;7.70;4.73;;;9.00;99.90;;;;;;4257248;27;20035;-63
2021/09/08 03:11:53;;;;;;;8.40;4.70;;;9.00;99.90;;;;;;4259400;27;20436;-63
2021/09/08 03:13:55;;;;;;;11.73;5.03;;;9.00;99.90;;;;;;4257881;27;20475;-63
2021/09/08 03:15:56;;;;;;;10.20;5.53;;;9.00;99.90;;;;;;4258975;27;20450;-63
2021/09/08 03:17:58;;;;;;;12.27;6.40;;;9.00;99.90;;;;;;4258137;27;20034;-63
2021/09/08 03:19:59;;;;;;;12.47;5.73;;;9.00;99.90;;;;;;4258942;27;20086;-64
2021/09/08 03:22:00;;;;;;;13.10;5.63;;;8.90;99.90;;;;;;4257029;27;20047;-63
2021/09/08 03:24:02;;;;;;;13.90;5.87;;;8.80;99.90;;;;;;4258455;27;20038;-63
2021/09/08 03:26:03;;;;;;;12.40;5.80;;;8.80;99.90;;;;;;4258329;27;20023;-63
2021/09/08 03:28:06;;;;;;;22.60;6.30;;;8.60;99.90;;;;;;4258717;27;20075;-63
2021/09/08 03:30:09;;;;;;;12.53;7.00;;;8.60;99.90;;;;;;4258158;27;20067;-63
2021/09/08 03:32:10;;;;;;;11.23;6.63;;;8.50;99.90;;;;;;4257311;27;20038;-64
2021/09/08 03:34:11;;;;;;;25.27;8.40;;;8.40;99.90;;;;;;4258636;27;20090;-63
2021/09/08 03:36:12;;;;;;;12.83;6.83;;;8.40;99.90;;;;;;4257682;27;20075;-63
2021/09/08 03:38:13;;;;;;;10.73;6.10;;;8.30;99.90;;;;;;4239973;27;20047;-63
2021/09/08 03:40:15;;;;;;;15.20;7.47;;;8.30;99.90;;;;;;4256230;27;20080;-63
2021/09/08 03:42:16;;;;;;;24.57;8.00;;;8.30;99.90;;;;;;4258137;27;20475;-63
2021/09/08 03:44:17;;;;;;;15.40;7.23;;;8.30;99.90;;;;;;4257195;27;20054;-64
2021/09/08 03:46:19;;;;;;;16.07;7.13;;;8.30;99.90;;;;;;4258503;27;20047;-62
2021/09/08 03:48:20;;;;;;;20.30;7.03;;;8.20;99.90;;;;;;4257014;27;20099;-64
2021/09/08 03:50:21;;;;;;;24.67;7.83;;;8.20;99.90;;;;;;4258739;27;20450;-64
2021/09/08 03:52:22;;;;;;;13.73;6.70;;;8.20;99.90;;;;;;4256928;27;20372;-64
2021/09/08 03:54:23;;;;;;;17.03;7.40;;;8.20;99.90;;;;;;4258458;27;20067;-64
2021/09/08 03:56:25;;;;;;;17.60;7.63;;;8.20;99.90;;;;;;4256760;27;20527;-65
2021/09/08 03:58:26;;;;;;;11.70;6.97;;;8.20;99.90;;;;;;4258314;27;20478;-64
2021/09/08 04:00:27;;;;;;;27.50;8.53;;;8.20;99.90;;;;;;4257331;27;20019;-64
2021/09/08 04:02:28;;;;;;;13.73;6.90;;;8.20;99.90;;;;;;4258058;27;20034;-64
2021/09/08 04:04:30;;;;;;;15.33;7.73;;;8.30;99.90;;;;;;4257978;27;20052;-64
2021/09/08 04:06:31;;;;;;;18.07;8.57;;;8.30;99.90;;;;;;4257179;27;20027;-64
2021/09/08 04:08:32;;;;;;;18.80;8.50;;;8.30;99.90;;;;;;4257948;27;20368;-64
2021/09/08 04:10:33;;;;;;;20.70;9.27;;;8.30;99.90;;;;;;4256062;27;20094;-64
2021/09/08 04:12:34;;;;;;;22.67;8.53;;;8.20;99.90;;;;;;4239270;27;20043;-64
2021/09/08 04:14:35;;;;;;;19.43;8.50;;;8.30;99.90;;;;;;4256283;27;20031;-65
2021/09/08 04:16:36;;;;;;;28.07;9.33;;;8.40;99.90;;;;;;4257934;27;20646;-61
2021/09/08 04:18:37;;;;;;;21.17;9.33;;;8.70;99.90;;;;;;4256745;27;20026;-64
2021/09/08 04:20:39;;;;;;;23.43;8.43;;;8.90;99.90;;;;;;4257764;27;20076;-65
2021/09/08 04:22:40;;;;;;;30.33;9.27;;;9.20;99.90;;;;;;4237750;27;20047;-64
2021/09/08 04:24:41;;;;;;;24.93;10.77;;;9.40;99.90;;;;;;4258076;27;20022;-64
2021/09/08 04:26:42;;;;;;;36.53;11.03;;;9.70;99.90;;;;;;4257213;27;20083;-64
2021/09/08 04:28:43;;;;;;;17.60;8.83;;;9.80;99.90;;;;;;4257568;27;20088;-64
2021/09/08 04:30:44;;;;;;;25.83;8.97;;;10.00;99.90;;;;;;4257010;27;20427;-65
2021/09/08 04:32:45;;;;;;;17.23;8.40;;;10.20;99.90;;;;;;4237991;27;20066;-65
2021/09/08 04:34:47;;;;;;;19.67;8.57;;;10.30;99.90;;;;;;4257531;27;20024;-64
2021/09/08 04:36:48;;;;;;;16.60;7.90;;;10.60;99.90;;;;;;4255834;27;20095;-64
2021/09/08 04:38:49;;;;;;;19.63;8.87;;;10.80;99.90;;;;;;4242901;27;20055;-63
2021/09/08 04:40:50;;;;;;;26.13;8.57;;;11.00;99.90;;;;;;4237960;27;20027;-64
2021/09/08 04:42:51;;;;;;;21.47;9.70;;;11.30;99.90;;;;;;4250876;27;20888;-64
2021/09/08 04:44:53;;;;;;;23.03;8.80;;;11.50;99.90;;;;;;4238483;27;20084;-64
2021/09/08 04:46:54;;;;;;;20.87;8.43;;;11.90;99.90;;;;;;4242519;27;20547;-61
2021/09/08 04:48:55;;;;;;;26.83;9.57;;;12.40;99.90;;;;;;4251036;27;20038;-66
2021/09/08 04:50:57;;;;;;;20.27;8.53;;;12.60;99.90;;;;;;4256428;27;20068;-63
2021/09/08 04:52:58;;;;;;;17.00;7.77;;;13.20;99.90;;;;;;4250107;27;20043;-63
2021/09/08 04:54:59;;;;;;;21.17;7.90;;;13.70;99.90;;;;;;4253571;27;20031;-62
2021/09/08 04:57:00;;;;;;;19.63;8.33;;;14.00;99.90;;;;;;4254440;27;20035;-63
2021/09/08 04:59:01;;;;;;;13.80;7.40;;;14.30;99.90;;;;;;4246022;27;20035;-64
2021/09/08 05:01:02;;;;;;;18.53;8.03;;;14.40;99.90;;;;;;4254621;27;20027;-63
2021/09/08 05:03:03;;;;;;;14.83;7.80;;;14.70;99.90;;;;;;4254365;27;20091;-63
2021/09/08 05:05:05;;;;;;;18.80;7.50;;;14.80;99.90;;;;;;4255897;27;20551;-63
2021/09/08 05:07:06;;;;;;;14.40;7.93;;;15.20;99.90;;;;;;4256226;27;20084;-64
2021/09/08 05:09:07;;;;;;;18.30;8.23;;;15.60;99.90;;;;;;4238827;28;20039;-65
2021/09/08 05:11:09;;;;;;;19.38;7.53;;;16.20;99.90;;;;;;4255518;27;20092;-65
2021/09/08 05:13:10;;;;;;;19.77;7.55;;;16.60;99.90;;;;;;4257596;27;20078;-61
2021/09/08 05:15:12;;;;;;;17.63;7.97;;;16.60;99.90;;;;;;4255529;27;20100;-64
2021/09/08 05:17:13;;;;;;;19.77;7.90;;;16.60;99.90;;;;;;4256297;27;20064;-64
2021/09/08 05:19:14;;;;;;;16.77;7.85;;;16.40;99.90;;;;;;4237402;28;20108;-64
2021/09/08 05:21:15;;;;;;;16.75;8.45;;;16.20;99.90;;;;;;4257481;27;20072;-64
2021/09/08 05:23:16;;;;;;;23.85;7.50;;;15.90;99.90;;;;;;4255225;27;20027;-65
2021/09/08 05:25:17;;;;;;;20.10;7.07;;;16.00;99.90;;;;;;4238377;28;20035;-64
2021/09/08 05:27:18;;;;;;;19.38;7.32;;;16.20;99.90;;;;;;4256512;27;20034;-66
2021/09/08 05:29:19;;;;;;;23.77;7.47;;;16.30;99.90;;;;;;4255875;27;20092;-65
2021/09/08 05:31:21;;;;;;;17.98;7.85;;;16.40;99.90;;;;;;4256431;27;20091;-64
2021/09/08 05:33:22;;;;;;;22.67;7.07;;;16.80;99.90;;;;;;4259449;27;20038;-64
2021/09/08 05:35:23;;;;;;;31.77;7.78;;;17.10;99.90;;;;;;4259959;27;20166;-64
2021/09/08 05:37:24;;;;;;;48.10;9.57;;;17.30;99.90;;;;;;4259486;27;20518;-66
2021/09/08 05:39:25;;;;;;;37.80;8.00;;;17.60;99.90;;;;;;4260524;27;20038;-64
2021/09/08 05:41:27;;;;;;;41.40;8.77;;;17.70;99.90;;;;;;4253980;27;20823;-65
2021/09/08 05:43:28;;;;;;;35.28;7.10;;;18.00;99.90;;;;;;4245299;27;20541;-63
2021/09/08 05:45:29;;;;;;;43.08;7.60;;;18.10;99.90;;;;;;4241863;27;20084;-66
2021/09/08 05:47:30;;;;;;;33.00;8.93;;;17.80;99.90;;;;;;4243255;27;20035;-63
2021/09/08 05:49:31;;;;;;;45.42;7.93;;;17.60;99.90;;;;;;4257676;27;20042;-62
2021/09/08 05:51:32;;;;;;;34.47;7.45;;;17.60;99.90;;;;;;4260332;27;20122;-65
2021/09/08 05:53:33;;;;;;;30.17;7.32;;;17.60;99.90;;;;;;4259131;27;20035;-63
2021/09/08 05:55:35;;;;;;;40.97;8.20;;;18.00;99.70;;;;;;4260076;27;20042;-62
2021/09/08 05:57:36;;;;;;;22.00;7.00;;;18.00;99.10;;;;;;4259574;27;20099;-64
2021/09/08 05:59:37;;;;;;;28.52;7.63;;;17.90;98.90;;;;;;4260032;27;20048;-64
2021/09/08 06:01:38;;;;;;;25.08;7.72;;;17.60;98.90;;;;;;4259074;27;20046;-63
2021/09/08 06:03:39;;;;;;;13.48;7.43;;;17.60;99.10;;;;;;4259454;27;20094;-63
2021/09/08 06:05:40;;;;;;;25.92;8.40;;;17.70;99.20;;;;;;4259968;27;20035;-65
2021/09/08 06:07:41;;;;;;;26.80;7.78;;;18.40;98.80;;;;;;4259402;27;20035;-63
2021/09/08 06:09:42;;;;;;;30.20;7.88;;;19.00;98.10;;;;;;4260807;27;20430;-63
2021/09/08 06:11:43;;;;;;;22.35;8.07;;;19.60;97.40;;;;;;4257819;27;20470;-65
2021/09/08 06:13:45;;;;;;;27.13;8.25;;;19.60;96.70;;;;;;4251679;27;20027;-65
2021/09/08 06:15:46;;;;;;;14.10;6.85;;;19.90;96.40;;;;;;4243833;27;20057;-65
2021/09/08 06:17:47;;;;;;;17.00;7.60;;;20.20;95.90;;;;;;4259386;27;20034;-65
2021/09/08 06:19:48;;;;;;;17.80;7.30;;;20.30;95.70;;;;;;4244010;27;20076;-66
2021/09/08 06:21:49;;;;;;;30.30;7.50;;;20.70;95.40;;;;;;4248342;27;20412;-64
2021/09/08 06:23:50;;;;;;;26.55;8.38;;;21.00;95.10;;;;;;4256654;27;20031;-64
2021/09/08 06:25:52;;;;;;;22.45;8.00;;;20.50;94.60;;;;;;4244902;27;20511;-63
2021/09/08 06:27:53;;;;;;;24.67;7.90;;;20.10;94.90;;;;;;4244389;27;20031;-65
2021/09/08 06:29:54;;;;;;;25.27;9.40;;;20.10;95.00;;;;;;4242618;27;20801;-64
2021/09/08 06:31:55;;;;;;;31.27;8.30;;;19.90;94.80;;;;;;4253825;27;20788;-64
2021/09/08 06:33:56;;;;;;;37.45;9.98;;;19.20;95.30;;;;;;4259595;27;20079;-64
2021/09/08 06:35:57;;;;;;;15.90;7.50;;;18.60;95.90;;;;;;4259531;27;20042;-64
2021/09/08 06:37:59;;;;;;;29.83;8.30;;;18.00;96.30;;;;;;4259383;27;20087;-65
2021/09/08 06:40:00;;;;;;;15.32;8.50;;;17.50;97.00;;;;;;4259481;27;20042;-63
2021/09/08 06:42:01;;;;;;;16.67;8.38;;;17.50;97.30;;;;;;4258178;27;20051;-63
2021/09/08 06:44:03;;;;;;;21.63;8.27;;;18.00;97.30;;;;;;4259069;27;20103;-63
2021/09/08 06:46:04;;;;;;;17.38;7.38;;;18.10;96.90;;;;;;4256943;27;20102;-65
2021/09/08 06:48:05;;;;;;;17.20;7.70;;;18.50;96.60;;;;;;4242440;27;20112;-64
2021/09/08 06:50:08;;;;;;;27.48;7.32;;;18.20;96.70;;;;;;4243904;27;20849;-64
2021/09/08 06:52:10;;;;;;;18.45;7.38;;;18.10;96.80;;;;;;4258855;27;20035;-62
2021/09/08 06:54:11;;;;;;;15.65;7.20;;;17.70;97.20;;;;;;4257793;27;20482;-63
2021/09/08 06:56:12;;;;;;;18.13;8.38;;;18.10;97.40;;;;;;4259145;27;20034;-63
2021/09/08 06:58:13;;;;;;;11.80;7.05;;;18.60;96.70;;;;;;4254365;27;20035;-63
2021/09/08 07:00:15;;;;;;;12.93;7.07;;;18.40;96.50;;;;;;4255125;27;20047;-61
2021/09/08 07:02:16;;;;;;;15.60;8.02;;;18.40;96.80;;;;;;4257243;27;20051;-63
2021/09/08 07:04:17;;;;;;;11.88;7.00;;;18.80;96.80;;;;;;4255239;27;20026;-63
2021/09/08 07:06:20;;;;;;;18.35;6.65;;;19.20;96.40;;;;;;4257674;27;20491;-63
2021/09/08 07:08:22;;;;;;;14.93;6.45;;;19.50;96.00;;;;;;4257638;27;20459;-63
2021/09/08 07:10:24;;;;;;;15.90;6.40;;;19.40;95.80;;;;;;4259183;27;20034;-62
2021/09/08 07:12:25;;;;;;;16.75;7.07;;;19.20;95.90;;;;;;4258049;27;20043;-63
2021/09/08 07:14:26;;;;;;;15.50;6.32;;;19.10;96.10;;;;;;4245456;27;20329;-63
2021/09/08 07:16:27;;;;;;;10.93;6.63;;;19.00;96.10;;;;;;4240747;27;20026;-63
2021/09/08 07:18:28;;;;;;;10.82;5.68;;;18.70;96.20;;;;;;4256795;27;20538;-64
2021/09/08 07:20:29;;;;;;;10.70;6.15;;;18.80;96.30;;;;;;4256478;27;20031;-64
2021/09/08 07:22:31;;;;;;;13.43;6.80;;;18.70;96.30;;;;;;4259263;27;20462;-65
2021/09/08 07:24:32;;;;;;;10.73;5.72;;;18.90;96.30;;;;;;4257260;27;20026;-64
2021/09/08 07:26:33;;;;;;;9.90;5.22;;;19.00;96.10;;;;;;4256906;27;20023;-64
2021/09/08 07:28:34;;;;;;;7.10;4.85;;;19.30;95.90;;;;;;4257321;27;20083;-64
2021/09/08 07:30:35;;;;;;;11.38;5.07;;;19.10;95.70;;;;;;4257478;27;20038;-64
2021/09/08 07:32:37;;;;;;;7.15;4.53;;;19.00;95.60;;;;;;4258146;27;20067;-63
2021/09/08 07:34:38;;;;;;;7.75;4.60;;;19.00;95.60;;;;;;4258928;27;20022;-64
2021/09/08 07:36:39;;;;;;;5.55;4.43;;;19.30;95.40;;;;;;4257479;27;20475;-63
2021/09/08 07:38:40;;;;;;;8.10;4.07;;;19.20;95.00;;;;;;4257065;27;20394;-65
2021/09/08 07:40:42;;;;;;;6.85;3.85;;;19.00;95.00;;;;;;4257056;27;20099;-65
2021/09/08 07:42:43;;;;;;;11.15;4.50;;;18.80;95.00;;;;;;4256096;27;20485;-65
2021/09/08 07:44:44;;;;;;;6.32;3.88;;;18.80;95.10;;;;;;4257022;27;20042;-64
2021/09/08 07:46:45;;;;;;;8.30;4.03;;;19.00;95.00;;;;;;4257390;27;20031;-64
2021/09/08 07:48:46;;;;;;;5.82;3.58;;;19.10;94.90;;;;;;4257604;27;20034;-63
2021/09/08 07:50:48;;;;;;;6.55;4.05;;;19.30;94.80;;;;;;4256796;27;20035;-64
2021/09/08 07:52:50;;;;;;;7.13;3.75;;;19.30;94.70;;;;;;4258019;27;20043;-64
2021/09/08 07:54:51;;;;;;;5.70;3.78;;;19.30;94.50;;;;;;4256859;27;20470;-64
2021/09/08 07:56:53;;;;;;;6.72;3.60;;;19.30;94.70;;;;;;4256680;27;20122;-65
2021/09/08 07:58:54;;;;;;;10.27;4.32;;;19.40;94.60;;;;;;4257264;27;20023;-65
2021/09/08 08:00:55;;;;;;;6.18;4.07;;;19.30;94.50;;;;;;4256920;27;20043;-64
2021/09/08 08:02:56;;;;;;;8.65;4.63;;;19.10;94.50;;;;;;4257389;27;20042;-64
2021/09/08 08:04:57;;;;;;;11.02;4.07;;;19.00;94.70;;;;;;4258056;27;20039;-64
2021/09/08 08:06:58;;;;;;;6.60;4.10;;;19.00;94.80;;;;;;4258230;27;20074;-64
2021/09/08 08:08:59;;;;;;;10.45;4.03;;;19.30;94.80;;;;;;4261628;27;20023;-65
2021/09/08 08:11:00;;;;;;;9.13;4.40;;;19.40;94.50;;;;;;4241091;27;20043;-64
2021/09/08 08:13:02;;;;;;;6.93;3.92;;;19.30;94.40;;;;;;4239995;27;20027;-64
2021/09/08 08:15:06;;;;;;;8.50;4.32;;;19.00;94.60;;;;;;4248568;27;20464;-65
2021/09/08 08:17:09;;;;;;;9.05;4.85;;;18.70;95.10;;;;;;4257052;27;20135;-64
2021/09/08 08:19:10;;;;;;;13.40;4.50;;;18.80;95.40;;;;;;4258418;27;20871;-62
2021/09/08 08:21:11;;;;;;;9.50;4.45;;;18.70;95.50;;;;;;4256460;27;20068;-64
2021/09/08 08:23:12;;;;;;;8.63;4.60;;;18.70;95.60;;;;;;4257770;27;20042;-64
2021/09/08 08:25:17;;;;;;;10.05;4.80;;;18.50;95.70;;;;;;4256331;27;20092;-63
2021/09/08 08:27:18;;;;;;;8.93;4.65;;;18.50;95.90;;;;;;4256706;27;20034;-64
2021/09/08 08:29:19;;;;;;;9.77;4.82;;;18.60;95.90;;;;;;4255560;27;20145;-64
2021/09/08 08:31:21;;;;;;;6.85;4.38;;;18.60;96.10;;;;;;4257708;27;20123;-64
2021/09/08 08:33:22;;;;;;;7.65;4.53;;;18.70;96.10;;;;;;4256685;27;20023;-65
2021/09/08 08:35:23;;;;;;;12.13;5.30;;;18.70;96.30;;;;;;4257224;27;20584;-64
2021/09/08 08:37:24;;;;;;;9.93;5.03;;;18.60;96.90;;;;;;4255974;27;20063;-64
2021/09/08 08:39:25;;;;;;;10.02;5.15;;;18.50;96.90;;;;;;4257177;27;20039;-64
2021/09/08 08:41:27;;;;;;;13.38;4.72;;;18.60;97.00;;;;;;4256821;27;20091;-64
2021/09/08 08:43:28;;;;;;;10.85;4.68;;;18.80;96.80;;;;;;4255920;27;20102;-64
2021/09/08 08:45:30;;;;;;;17.92;5.75;;;19.00;96.70;;;;;;4256798;27;20042;-63
2021/09/08 08:47:33;;;;;;;11.20;5.25;;;19.10;96.50;;;;;;4253672;27;20092;-65
2021/09/08 08:49:35;;;;;;;8.07;4.82;;;19.10;96.60;;;;;;4257258;27;20104;-64
2021/09/08 08:51:36;;;;;;;7.82;4.70;;;19.00;96.80;;;;;;4255842;27;20075;-64
2021/09/08 08:53:37;;;;;;;6.60;4.43;;;18.90;96.80;;;;;;4256816;27;20482;-65
2021/09/08 08:55:38;;;;;;;10.07;4.53;;;18.90;96.80;;;;;;4256813;27;20381;-64
2021/09/08 08:57:40;;;;;;;8.95;5.00;;;18.90;96.80;;;;;;4257351;27;20525;-63
2021/09/08 08:59:45;;;;;;;8.13;4.47;;;19.10;96.50;;;;;;4256018;27;20039;-65
2021/09/08 09:01:46;;;;;;;15.45;5.10;;;19.20;96.30;;;;;;4258107;27;20419;-64
2021/09/08 09:04:05;;;;;;;9.95;4.70;;;19.30;96.30;;;;;;4249177;27;20096;-64
2021/09/08 09:06:09;;;;;;;9.18;4.63;;;19.30;96.10;;;;;;4257564;27;20102;-64
2021/09/08 09:08:10;;;;;;;9.77;4.80;;;19.50;96.10;;;;;;4260329;27;20043;-64
2021/09/08 09:10:14;;;;;;;13.50;4.95;;;19.40;95.90;;;;;;4261362;27;20495;-64
2021/09/08 09:12:15;;;;;;;9.38;5.10;;;19.40;96.10;;;;;;4240758;27;20116;-64
2021/09/08 09:14:18;;;;;;;7.13;4.38;;;19.50;96.10;;;;;;4259855;27;20490;-64
2021/09/08 09:16:25;;;;;;;8.15;4.90;;;19.50;95.90;;;;;;4259227;27;20471;-64
2021/09/08 09:18:35;;;;;;;7.10;4.47;;;19.50;95.90;;;;;;4259880;27;20107;-64
2021/09/08 09:20:40;;;;;;;11.27;5.28;;;19.40;95.90;;;;;;4241983;27;20579;-65
2021/09/08 09:22:49;;;;;;;11.68;5.65;;;19.60;95.90;;;;;;4242905;27;20080;-64
2021/09/08 09:24:53;;;;;;;11.70;5.18;;;19.70;96.10;;;;;;4243330;27;20968;-64
2021/09/08 09:26:54;;;;;;;8.43;4.60;;;19.60;96.30;;;;;;4243170;27;20076;-64
2021/09/08 09:29:12;;;;;;;7.97;5.88;;;19.60;96.30;;;;;;4242821;27;20035;-64
2021/09/08 09:31:23;;;;;;;7.60;4.80;;;19.60;96.30;;;;;;4255603;27;20039;-63
2021/09/08 09:33:28;;;;;;;15.20;4.95;;;19.80;96.30;;;;;;4242028;27;20514;-63
2021/09/08 09:35:32;;;;;;;9.63;5.22;;;19.90;96.40;;;;;;4255400;27;20420;-63
2021/09/08 09:37:43;;;;;;;12.52;4.93;;;19.80;96.20;;;;;;4268940;27;20035;-64
2021/09/08 09:39:44;;;;;;;8.82;5.78;;;19.90;96.10;;;;;;4259129;27;20091;-64
2021/09/08 09:41:45;;;;;;;8.38;5.50;;;19.80;96.20;;;;;;4259894;27;20486;-61
2021/09/08 09:43:46;;;;;;;9.98;4.78;;;19.90;96.30;;;;;;4257212;27;20099;-63
2021/09/08 09:45:47;;;;;;;9.05;4.70;;;20.00;96.20;;;;;;4259728;27;20083;-64
2021/09/08 09:47:49;;;;;;;11.88;5.20;;;20.10;96.00;;;;;;4258823;27;20515;-63
2021/09/08 09:49:55;;;;;;;9.68;5.28;;;20.10;95.90;;;;;;4260303;27;20828;-64
2021/09/08 09:51:56;;;;;;;8.80;4.80;;;20.10;96.10;;;;;;4258854;27;20023;-63
2021/09/08 09:53:58;;;;;;;10.05;4.88;;;20.10;96.10;;;;;;4259927;27;20035;-63
2021/09/08 09:56:00;;;;;;;10.55;5.68;;;20.00;96.20;;;;;;4258611;27;20022;-63
2021/09/08 09:58:01;;;;;;;8.25;5.10;;;20.00;96.20;;;;;;4258897;27;20083;-63
2021/09/08 10:00:04;;;;;;;11.30;4.95;;;20.10;96.20;;;;;;4258740;27;20036;-64
2021/09/08 10:02:05;;;;;;;7.22;5.03;;;20.20;96.10;;;;;;4260389;27;20023;-64
2021/09/08 10:04:07;;;;;;;10.98;4.70;;;20.20;96.10;;;;;;4258495;27;20501;-65
2021/09/08 10:06:09;;;;;;;8.85;5.05;;;20.20;95.90;;;;;;4259454;27;20030;-66
2021/09/08 10:08:11;;;;;;;9.23;4.38;;;20.20;96.00;;;;;;4259493;27;20027;-65
2021/09/08 10:10:23;;;;;;;9.10;5.00;;;20.30;96.00;;;;;;4258990;27;20095;-66
2021/09/08 10:12:31;;;;;;;9.48;5.28;;;20.40;95.80;;;;;;4259291;27;20903;-65
2021/09/08 10:14:33;;;;;;;8.10;5.43;;;20.40;95.90;;;;;;4259329;27;20561;-65
2021/09/08 10:16:35;;;;;;;8.07;5.70;;;20.50;95.80;;;;;;4258233;27;20026;-64
2021/09/08 10:18:36;;;;;;;11.13;4.82;;;20.50;95.80;;;;;;4256907;27;20462;-65
2021/09/08 10:20:38;;;;;;;8.63;4.72;;;20.60;95.80;;;;;;4259793;27;20056;-64
2021/09/08 10:22:40;;;;;;;11.63;4.72;;;20.70;95.60;;;;;;4256746;27;20046;-65
2021/09/08 10:24:48;;;;;;;8.57;4.72;;;20.90;95.40;;;;;;4239924;27;20179;-64
2021/09/08 10:26:49;;;;;;;11.27;5.20;;;21.00;95.00;;;;;;4258500;27;20052;-64
2021/09/08 10:28:50;;;;;;;9.52;4.90;;;21.00;94.90;;;;;;4258153;27;20110;-64
2021/09/08 10:30:52;;;;;;;10.40;4.68;;;21.00;95.10;;;;;;4257483;27;20030;-64